Terminal Aerodrome Forecast
Issued by NWS

Home | Current Version | Previous Version | Graphics & Text | Print | Product List | Glossary On
Versions: 1 2 3 4 5 6 7 8 9 10 11 12 13 14 15 16 17 18 19 20 21 22 23 24 25 26 27 28 29 30
799
FTUS43 KLOT 300900 AAB
TAFORD
TAF AMD
KORD 300900Z 3009/3112 VRB02KT 2SM BR SCT007 SCT250
     FM301100 26004KT 3SM -SHRA SCT007 BKN050
     FM301300 26005KT P6SM SCT040 BKN080
     FM301800 26008KT P6SM VCSH BKN035 PROB30 3018/3024 2SM TSRA
      SCT020 OVC030CB
     FM310000 27005KT P6SM SCT040 BKN180
     FM310800 33006KT P6SM SCT040 BKN180=

USA.gov is the U.S. government's official web portal to all federal, state and local government web resources and services.